createdAt,value
2023-04-17T00:01:42.698Z,9.31
2023-04-17T00:04:11.644Z,9.25
2023-04-17T00:06:40.203Z,9.24
2023-04-17T00:09:10.244Z,9.21
2023-04-17T00:11:38.727Z,9.20
2023-04-17T00:14:06.810Z,9.18
2023-04-17T00:16:34.998Z,9.17
2023-04-17T00:19:03.205Z,9.16
2023-04-17T00:21:32.037Z,9.18
2023-04-17T00:23:59.956Z,9.22
2023-04-17T00:26:27.879Z,9.26
2023-04-17T00:28:56.413Z,9.32
2023-04-17T00:31:24.454Z,9.38
2023-04-17T00:33:52.360Z,9.40
2023-04-17T00:36:20.291Z,9.39
2023-04-17T00:38:48.696Z,9.37
2023-04-17T00:41:16.784Z,9.36
2023-04-17T00:43:44.658Z,9.32
2023-04-17T00:46:13.880Z,9.29
2023-04-17T00:48:41.831Z,9.28
2023-04-17T00:51:13.241Z,9.15
2023-04-17T00:53:41.360Z,9.13
2023-04-17T00:56:09.367Z,9.14
2023-04-17T00:58:38.719Z,9.10
2023-04-17T01:01:06.844Z,9.22
2023-04-17T01:03:35.710Z,9.30
2023-04-17T01:06:04.905Z,9.28
2023-04-17T01:08:40.935Z,9.20
2023-04-17T01:11:10.070Z,9.28
2023-04-17T01:13:46.404Z,9.33
2023-04-17T01:16:14.859Z,9.30
2023-04-17T01:18:42.794Z,9.28
2023-04-17T01:21:11.077Z,9.33
2023-04-17T01:23:52.238Z,9.28
2023-04-17T01:26:25.027Z,9.18
2023-04-17T01:28:57.689Z,9.18
2023-04-17T01:31:26.462Z,9.19
2023-04-17T01:33:55.114Z,9.23
2023-04-17T01:36:23.182Z,9.18
2023-04-17T01:38:51.058Z,9.23
2023-04-17T01:41:19.728Z,9.21
2023-04-17T01:43:47.763Z,9.33
2023-04-17T01:46:16.002Z,9.29
2023-04-17T01:48:44.020Z,9.23
2023-04-17T01:51:12.068Z,9.28
2023-04-17T01:53:40.158Z,9.40
2023-04-17T01:56:08.101Z,9.35
2023-04-17T01:58:36.251Z,9.43
2023-04-17T02:01:04.508Z,9.54
2023-04-17T02:03:33.420Z,9.47
2023-04-17T02:06:01.756Z,9.60
2023-04-17T02:08:30.567Z,9.59
2023-04-17T02:10:59.974Z,9.50
2023-04-17T02:13:28.504Z,9.65
2023-04-17T02:15:57.946Z,9.72
2023-04-17T02:18:30.477Z,9.62
2023-04-17T02:21:01.338Z,9.67
2023-04-17T02:23:29.629Z,9.81
2023-04-17T02:25:57.930Z,9.76
2023-04-17T02:31:32.399Z,9.42
2023-04-17T02:34:00.478Z,9.65
2023-04-17T02:36:28.855Z,9.75
2023-04-17T02:38:56.832Z,9.85
2023-04-17T02:41:24.768Z,9.84
2023-04-17T02:43:53.112Z,9.74
2023-04-17T02:46:21.841Z,9.83
2023-04-17T02:48:49.898Z,9.90
2023-04-17T02:51:18.540Z,9.80
2023-04-17T02:53:46.941Z,9.86
2023-04-17T02:56:15.549Z,9.95
2023-04-17T02:58:45.162Z,9.86
2023-04-17T03:01:13.413Z,9.77
2023-04-17T03:03:45.116Z,9.89
2023-04-17T03:06:14.583Z,9.95
2023-04-17T03:08:42.503Z,9.86
2023-04-17T03:11:11.482Z,9.79
2023-04-17T03:13:39.570Z,9.94
2023-04-17T03:16:07.561Z,10.02
2023-04-17T03:18:39.743Z,9.97
2023-04-17T03:21:08.019Z,9.86
2023-04-17T03:23:36.339Z,9.99
2023-04-17T03:26:05.051Z,10.06
2023-04-17T03:28:34.048Z,9.97
2023-04-17T03:31:02.588Z,10.03
2023-04-17T03:33:32.212Z,10.14
2023-04-17T03:36:00.417Z,10.04
2023-04-17T03:38:29.838Z,10.06
2023-04-17T03:40:58.803Z,10.19
2023-04-17T03:43:27.138Z,10.16
2023-04-17T03:45:55.093Z,10.03
2023-04-17T03:48:24.333Z,10.13
2023-04-17T03:50:52.776Z,10.22
2023-04-17T03:53:20.991Z,10.13
2023-04-17T03:55:49.784Z,10.11
2023-04-17T03:58:27.250Z,10.24
2023-04-17T04:00:55.864Z,10.21
2023-04-17T04:03:26.531Z,10.13
2023-04-17T04:05:55.222Z,10.26
2023-04-17T04:08:23.828Z,10.33
2023-04-17T04:10:53.182Z,10.25
2023-04-17T04:13:34.009Z,10.36
2023-04-17T04:16:03.499Z,10.44
2023-04-17T04:18:31.924Z,10.34
2023-04-17T04:21:00.115Z,10.34
2023-04-17T04:23:31.918Z,10.51
2023-04-17T04:26:01.923Z,10.48
2023-04-17T04:28:50.653Z,10.41
2023-04-17T04:31:42.649Z,10.56
2023-04-17T04:34:13.557Z,10.59
2023-04-17T04:36:49.940Z,10.52
2023-04-17T04:39:31.102Z,10.71
2023-04-17T04:42:06.132Z,10.67
2023-04-17T04:44:42.765Z,10.61
2023-04-17T04:47:10.943Z,10.77
2023-04-17T04:49:39.084Z,10.81
2023-04-17T04:52:07.143Z,10.69
2023-04-17T04:54:36.221Z,10.80
2023-04-17T04:57:05.109Z,10.88
2023-04-17T04:59:34.081Z,10.77
2023-04-17T05:02:22.377Z,10.76
2023-04-17T05:04:52.260Z,10.95
2023-04-17T05:07:20.851Z,10.87
2023-04-17T05:09:48.858Z,10.78
2023-04-17T05:12:17.509Z,10.77
2023-04-17T05:14:45.777Z,10.91
2023-04-17T05:17:14.070Z,10.89
2023-04-17T05:19:42.158Z,10.80
2023-04-17T05:22:12.801Z,10.78
2023-04-17T05:24:50.272Z,10.97
2023-04-17T05:27:18.292Z,10.93
2023-04-17T05:29:46.517Z,10.83
2023-04-17T05:32:14.667Z,10.81
2023-04-17T05:34:52.455Z,10.99
2023-04-17T05:37:23.385Z,11.02
2023-04-17T05:39:51.434Z,10.90
2023-04-17T05:42:19.330Z,10.83
2023-04-17T05:44:47.368Z,10.82
2023-04-17T05:47:15.605Z,11.10
2023-04-17T05:49:44.261Z,11.10
2023-04-17T05:52:12.195Z,11.03
2023-04-17T05:54:42.399Z,11.04
2023-04-17T05:57:10.438Z,11.08
2023-04-17T05:59:38.576Z,11.27
2023-04-17T06:02:07.785Z,11.54
2023-04-17T06:04:36.304Z,11.55
2023-04-17T06:07:06.236Z,11.52
2023-04-17T06:09:36.717Z,11.53
2023-04-17T06:12:05.263Z,11.60
2023-04-17T06:14:33.946Z,11.63
2023-04-17T06:17:02.773Z,11.68
2023-04-17T06:19:30.694Z,11.74
2023-04-17T06:21:58.649Z,11.82
2023-04-17T06:24:26.690Z,11.93
2023-04-17T06:26:56.671Z,12.05
2023-04-17T06:29:24.596Z,12.16
2023-04-17T06:31:53.546Z,12.25
2023-04-17T06:34:21.948Z,12.24
2023-04-17T06:36:50.247Z,12.21
2023-04-17T06:39:18.852Z,12.18
2023-04-17T06:41:48.611Z,12.10
2023-04-17T06:44:24.156Z,12.04
2023-04-17T06:46:53.111Z,12.01
2023-04-17T06:49:21.020Z,12.00
2023-04-17T06:51:49.812Z,12.03
2023-04-17T06:54:17.733Z,12.06
2023-04-17T06:56:45.947Z,12.04
2023-04-17T06:59:13.982Z,12.03
2023-04-17T07:01:42.539Z,12.03
2023-04-17T07:04:10.900Z,12.03
2023-04-17T07:06:39.639Z,12.00
2023-04-17T07:09:07.870Z,12.03
2023-04-17T07:11:36.318Z,12.03
2023-04-17T07:14:04.530Z,12.01
2023-04-17T07:16:32.766Z,11.96
2023-04-17T07:19:00.725Z,11.93
2023-04-17T07:21:28.899Z,11.93
2023-04-17T07:23:57.008Z,11.94
2023-04-17T07:26:24.912Z,11.97
2023-04-17T07:28:53.054Z,11.93
2023-04-17T07:31:22.406Z,11.92
2023-04-17T07:33:50.732Z,11.91
2023-04-17T07:36:18.635Z,11.89
2023-04-17T07:38:46.713Z,11.90
2023-04-17T07:41:14.634Z,11.95
2023-04-17T07:43:42.457Z,11.95
2023-04-17T07:46:10.369Z,11.92
2023-04-17T07:48:39.193Z,11.92
2023-04-17T07:51:07.863Z,11.94
2023-04-17T07:53:37.439Z,11.95
2023-04-17T07:56:06.475Z,11.99
2023-04-17T07:58:36.039Z,12.04
2023-04-17T08:01:07.112Z,12.01
2023-04-17T08:03:35.478Z,12.00
2023-04-17T08:06:03.832Z,12.04
2023-04-17T08:08:32.291Z,12.13
2023-04-17T08:11:00.476Z,12.23
2023-04-17T08:13:32.412Z,12.28
2023-04-17T08:16:02.052Z,12.33
2023-04-17T08:18:32.346Z,12.40
2023-04-17T08:21:00.346Z,12.46
2023-04-17T08:23:28.527Z,12.51
2023-04-17T08:25:56.385Z,12.54
2023-04-17T08:28:25.210Z,12.57
2023-04-17T08:30:53.243Z,12.60
2023-04-17T08:33:21.394Z,12.68
2023-04-17T08:35:49.409Z,12.77
2023-04-17T08:38:17.377Z,12.72
2023-04-17T08:40:47.141Z,12.35
2023-04-17T08:43:21.131Z,12.23
2023-04-17T08:45:53.928Z,12.29
2023-04-17T08:48:22.985Z,12.38
2023-04-17T08:50:52.436Z,12.43
2023-04-17T08:53:21.339Z,12.22
2023-04-17T08:55:49.210Z,12.28
2023-04-17T08:58:18.000Z,12.47
2023-04-17T09:00:45.898Z,12.67
2023-04-17T09:03:14.234Z,12.85
2023-04-17T09:05:46.141Z,12.98
2023-04-17T09:08:17.187Z,13.10
2023-04-17T09:10:46.805Z,13.08
2023-04-17T09:13:16.546Z,13.02
2023-04-17T09:15:45.859Z,12.95
2023-04-17T09:18:27.397Z,13.03
2023-04-17T09:20:57.718Z,12.94
2023-04-17T09:23:27.191Z,12.87
2023-04-17T09:26:08.646Z,13.05
2023-04-17T09:28:40.794Z,13.20
2023-04-17T09:31:17.872Z,13.21
2023-04-17T09:34:12.208Z,13.33
2023-04-17T09:36:42.169Z,13.44
2023-04-17T09:39:21.173Z,13.48
2023-04-17T09:41:49.329Z,13.54
2023-04-17T09:44:26.081Z,13.57
2023-04-17T09:46:54.314Z,13.52
2023-04-17T09:49:40.018Z,13.46
2023-04-17T09:52:08.422Z,13.35
2023-04-17T09:54:39.297Z,13.21
2023-04-17T09:57:08.543Z,13.18
2023-04-17T09:59:42.128Z,13.21
2023-04-17T10:02:12.650Z,13.27
2023-04-17T10:04:41.914Z,13.10
2023-04-17T10:07:10.223Z,12.91
2023-04-17T10:09:39.954Z,12.93
2023-04-17T10:12:12.015Z,13.03
2023-04-17T10:14:40.320Z,12.95
2023-04-17T10:17:37.363Z,12.71
2023-04-17T10:20:17.731Z,12.49
2023-04-17T10:22:54.267Z,12.68
2023-04-17T10:25:23.004Z,12.87
2023-04-17T10:27:54.460Z,13.04
2023-04-17T10:30:23.278Z,13.12
2023-04-17T10:33:19.998Z,13.20
2023-04-17T10:35:48.314Z,13.17
2023-04-17T10:38:17.619Z,13.10
2023-04-17T10:40:46.119Z,13.05
2023-04-17T10:43:15.324Z,13.03
2023-04-17T10:46:02.857Z,13.09
2023-04-17T10:48:39.305Z,13.19
2023-04-17T10:51:29.248Z,13.11
2023-04-17T10:54:01.503Z,12.93
2023-04-17T10:56:35.787Z,13.02
2023-04-17T10:59:03.819Z,13.19
2023-04-17T11:01:37.673Z,13.34
2023-04-17T11:04:06.642Z,13.43
2023-04-17T11:06:39.514Z,13.44
2023-04-17T11:09:10.657Z,13.11
2023-04-17T11:11:44.272Z,13.04
2023-04-17T11:14:14.975Z,13.31
2023-04-17T11:16:44.332Z,13.55
2023-04-17T11:19:17.143Z,13.52
2023-04-17T11:21:45.876Z,13.52
2023-04-17T11:24:13.976Z,13.72
2023-04-17T11:26:46.660Z,14.08
2023-04-17T11:29:18.699Z,14.38
2023-04-17T11:31:47.127Z,14.45
2023-04-17T11:34:16.463Z,14.68
2023-04-17T11:36:54.791Z,14.67
2023-04-17T11:39:23.577Z,14.89
2023-04-17T11:41:52.158Z,15.07
2023-04-17T11:44:21.273Z,15.36
2023-04-17T11:46:51.355Z,15.36
2023-04-17T11:49:28.587Z,15.30
2023-04-17T11:51:57.661Z,15.51
2023-04-17T11:54:29.418Z,15.58
2023-04-17T11:57:09.508Z,15.36
2023-04-17T11:59:39.160Z,15.07
2023-04-17T12:02:08.660Z,14.62
2023-04-17T12:04:38.086Z,14.58
2023-04-17T12:07:07.208Z,14.80
2023-04-17T12:09:35.940Z,15.16
2023-04-17T12:12:05.528Z,15.24
2023-04-17T12:14:33.863Z,15.36
2023-04-17T12:17:01.863Z,15.51
2023-04-17T12:19:32.033Z,15.74
2023-04-17T12:22:00.248Z,15.92
2023-04-17T12:24:28.252Z,16.11
2023-04-17T12:26:57.321Z,16.29
2023-04-17T12:29:36.788Z,16.25
2023-04-17T12:32:11.961Z,15.81
2023-04-17T12:34:40.577Z,15.94
2023-04-17T12:37:09.086Z,16.12
2023-04-17T12:39:38.395Z,16.24
2023-04-17T12:42:06.586Z,16.36
2023-04-17T12:44:35.333Z,16.39
2023-04-17T12:47:03.677Z,16.41
2023-04-17T12:49:32.079Z,16.53
2023-04-17T12:52:02.463Z,16.63
2023-04-17T12:54:31.999Z,16.39
2023-04-17T12:56:59.877Z,16.45
2023-04-17T12:59:27.777Z,16.57
2023-04-17T13:01:56.760Z,16.76
2023-04-17T13:04:24.905Z,16.94
2023-04-17T13:06:52.935Z,17.08
2023-04-17T13:09:20.910Z,17.10
2023-04-17T13:11:48.784Z,17.08
2023-04-17T13:14:17.741Z,17.05
2023-04-17T13:16:46.024Z,17.05
2023-04-17T13:19:15.371Z,17.12
2023-04-17T13:21:43.533Z,17.20
2023-04-17T13:24:14.905Z,17.28
2023-04-17T13:26:44.305Z,17.33
2023-04-17T13:29:12.696Z,17.35
2023-04-17T13:31:41.159Z,17.36
2023-04-17T13:34:13.041Z,17.37
2023-04-17T13:36:42.533Z,17.30
2023-04-17T13:39:11.625Z,17.05
2023-04-17T13:41:39.755Z,16.93
2023-04-17T13:44:07.657Z,16.54
2023-04-17T13:46:36.699Z,16.54
2023-04-17T13:49:04.628Z,15.95
2023-04-17T13:51:33.593Z,15.60
2023-04-17T13:54:01.576Z,15.79
2023-04-17T13:56:30.003Z,16.03
2023-04-17T13:58:58.003Z,16.18
2023-04-17T14:01:26.087Z,16.28
2023-04-17T14:03:54.366Z,16.35
2023-04-17T14:06:26.244Z,16.36
2023-04-17T14:08:57.285Z,16.34
2023-04-17T14:11:25.392Z,16.00
2023-04-17T14:13:54.474Z,15.91
2023-04-17T14:16:22.399Z,16.04
2023-04-17T14:18:50.694Z,16.14
2023-04-17T14:21:18.695Z,16.22
2023-04-17T14:23:46.661Z,16.25
2023-04-17T14:26:15.664Z,16.29
2023-04-17T14:28:43.585Z,16.13
2023-04-17T14:31:11.611Z,15.79
2023-04-17T14:33:39.572Z,15.51
2023-04-17T14:36:07.684Z,15.70
2023-04-17T14:38:36.491Z,15.72
2023-04-17T14:41:04.636Z,15.79
2023-04-17T14:43:32.539Z,15.86
2023-04-17T14:46:00.852Z,15.87
2023-04-17T14:49:32.952Z,15.65
2023-04-17T14:51:59.493Z,16.01
2023-04-17T14:54:26.516Z,16.01
2023-04-17T14:56:53.461Z,16.02
2023-04-17T14:59:20.043Z,15.78
2023-04-17T15:01:47.011Z,15.63
2023-04-17T15:04:13.972Z,15.47
2023-04-17T15:06:42.523Z,15.45
2023-04-17T15:09:10.122Z,15.51
2023-04-17T15:11:36.972Z,15.46
2023-04-17T15:14:03.840Z,15.27
2023-04-17T15:16:30.529Z,15.12
2023-04-17T15:18:57.144Z,15.23
2023-04-17T15:21:23.750Z,15.02
2023-04-17T15:23:50.633Z,14.98
2023-04-17T15:26:17.235Z,15.06
2023-04-17T15:28:43.810Z,15.14
2023-04-17T15:31:10.738Z,14.90
2023-04-17T15:33:37.399Z,14.99
2023-04-17T15:36:04.300Z,14.97
2023-04-17T15:38:31.755Z,15.05
2023-04-17T15:40:58.398Z,15.09
2023-04-17T15:43:25.223Z,15.04
2023-04-17T15:45:51.937Z,14.92
2023-04-17T15:48:18.554Z,14.91
2023-04-17T15:50:45.985Z,14.89
2023-04-17T15:53:13.931Z,14.79
2023-04-17T15:55:40.783Z,14.81
2023-04-17T15:58:07.694Z,14.89
2023-04-17T16:00:34.970Z,14.90
2023-04-17T16:03:01.924Z,14.80
2023-04-17T16:05:30.421Z,14.82
2023-04-17T16:07:57.249Z,14.80
2023-04-17T16:10:24.176Z,14.68
2023-04-17T16:12:50.774Z,14.64
2023-04-17T16:15:17.469Z,14.66
2023-04-17T16:17:45.009Z,14.63
2023-04-17T16:20:11.943Z,14.57
2023-04-17T16:22:38.889Z,14.48
2023-04-17T16:25:06.305Z,14.31
2023-04-17T16:27:33.616Z,14.33
2023-04-17T16:30:02.397Z,14.40
2023-04-17T16:32:31.219Z,14.41
2023-04-17T16:34:58.140Z,14.38
2023-04-17T16:37:25.141Z,14.32
2023-04-17T16:39:51.809Z,14.31
2023-04-17T16:42:18.309Z,14.27
2023-04-17T16:44:44.971Z,14.29
2023-04-17T16:47:13.939Z,14.11
2023-04-17T16:49:41.956Z,14.11
2023-04-17T16:52:08.584Z,14.19
2023-04-17T16:54:35.379Z,14.18
2023-04-17T16:57:02.909Z,14.13
2023-04-17T16:59:29.985Z,14.04
2023-04-17T17:01:56.796Z,14.01
2023-04-17T17:04:25.095Z,14.05
2023-04-17T17:06:51.638Z,14.00
2023-04-17T17:09:19.666Z,14.00
2023-04-17T17:11:46.695Z,14.00
2023-04-17T17:14:15.401Z,13.92
2023-04-17T17:16:42.025Z,13.87
2023-04-17T17:19:08.998Z,13.84
2023-04-17T17:21:35.759Z,13.88
2023-04-17T17:24:02.370Z,13.83
2023-04-17T17:26:29.383Z,13.86
2023-04-17T17:28:56.898Z,13.77
2023-04-17T17:31:23.481Z,13.63
2023-04-17T17:33:50.971Z,13.63
2023-04-17T17:36:17.611Z,13.62
2023-04-17T17:38:44.198Z,13.63
2023-04-17T17:41:10.771Z,13.68
2023-04-17T17:43:37.908Z,13.65
2023-04-17T17:46:04.684Z,13.66
2023-04-17T17:48:33.618Z,13.63
2023-04-17T17:51:00.134Z,13.60
2023-04-17T17:53:28.301Z,13.59
2023-04-17T17:55:55.313Z,13.55
2023-04-17T17:58:22.142Z,13.52
2023-04-17T18:00:49.392Z,13.58
2023-04-17T18:03:16.104Z,13.48
2023-04-17T18:05:43.385Z,13.50
2023-04-17T18:08:09.934Z,13.50
2023-04-17T18:10:36.675Z,13.49
2023-04-17T18:13:03.490Z,13.45
2023-04-17T18:15:30.368Z,13.42
2023-04-17T18:17:59.790Z,13.35
2023-04-17T18:20:26.476Z,13.30
2023-04-17T18:22:53.142Z,13.27
2023-04-17T18:25:19.774Z,13.27
2023-04-17T18:27:46.268Z,13.24
2023-04-17T18:30:13.577Z,13.18
2023-04-17T18:32:41.563Z,13.20
2023-04-17T18:35:08.383Z,13.15
2023-04-17T18:37:36.084Z,13.14
2023-04-17T18:40:02.678Z,13.11
2023-04-17T18:42:29.606Z,13.12
2023-04-17T18:44:56.112Z,13.07
2023-04-17T18:47:22.698Z,13.05
2023-04-17T18:49:52.231Z,13.05
2023-04-17T18:52:19.185Z,13.00
2023-04-17T18:54:45.677Z,12.99
2023-04-17T18:57:12.404Z,12.97
2023-04-17T18:59:39.738Z,12.96
2023-04-17T19:02:07.159Z,12.92
2023-04-17T19:04:34.397Z,12.90
2023-04-17T19:07:02.085Z,12.85
2023-04-17T19:09:28.951Z,12.87
2023-04-17T19:11:55.837Z,12.87
2023-04-17T19:14:22.455Z,12.81
2023-04-17T19:16:49.127Z,12.80
2023-04-17T19:19:16.090Z,12.83
2023-04-17T19:21:42.709Z,12.79
2023-04-17T19:24:09.366Z,12.77
2023-04-17T19:26:36.275Z,12.78
2023-04-17T19:29:04.214Z,12.76
2023-04-17T19:31:32.275Z,12.73
2023-04-17T19:33:59.703Z,12.62
2023-04-17T19:36:26.839Z,12.59
2023-04-17T19:38:54.912Z,12.59
2023-04-17T19:41:21.479Z,12.55
2023-04-17T19:43:49.215Z,12.57
2023-04-17T19:46:16.406Z,12.54
2023-04-17T19:48:44.151Z,12.52
2023-04-17T19:51:11.399Z,12.36
2023-04-17T19:53:38.927Z,12.33
2023-04-17T19:56:08.316Z,12.28
2023-04-17T19:58:36.209Z,12.35
2023-04-17T20:01:03.013Z,12.37
2023-04-17T20:03:31.654Z,12.30
2023-04-17T20:05:58.590Z,12.24
2023-04-17T20:08:25.446Z,12.22
2023-04-17T20:10:52.015Z,12.19
2023-04-17T20:13:18.857Z,12.14
2023-04-17T20:15:45.373Z,12.09
2023-04-17T20:18:11.904Z,12.08
2023-04-17T20:20:38.558Z,12.08
2023-04-17T20:23:05.133Z,12.05
2023-04-17T20:25:31.610Z,12.06
2023-04-17T20:27:58.176Z,12.00
2023-04-17T20:30:24.827Z,11.94
2023-04-17T20:32:51.426Z,11.92
2023-04-17T20:35:20.318Z,12.00
2023-04-17T20:37:46.907Z,11.99
2023-04-17T20:40:13.590Z,11.96
2023-04-17T20:42:40.911Z,11.88
2023-04-17T20:45:07.932Z,11.91
2023-04-17T20:47:34.975Z,11.91
2023-04-17T20:50:01.787Z,11.87
2023-04-17T20:52:28.480Z,11.86
2023-04-17T20:54:55.299Z,11.82
2023-04-17T20:57:22.478Z,11.83
2023-04-17T20:59:48.974Z,11.76
2023-04-17T21:02:15.615Z,11.73
2023-04-17T21:04:42.888Z,11.71
2023-04-17T21:07:09.348Z,11.68
2023-04-17T21:09:36.046Z,11.68
2023-04-17T21:12:02.685Z,11.64
2023-04-17T21:14:29.839Z,11.58
2023-04-17T21:16:57.905Z,11.59
2023-04-17T21:19:27.619Z,11.51
2023-04-17T21:21:54.473Z,11.50
2023-04-17T21:24:21.099Z,11.46
2023-04-17T21:26:47.597Z,11.46
2023-04-17T21:29:14.075Z,11.41
2023-04-17T21:31:41.223Z,11.37
2023-04-17T21:34:07.916Z,11.34
2023-04-17T21:36:34.800Z,11.33
2023-04-17T21:39:01.295Z,11.29
2023-04-17T21:41:30.586Z,11.26
2023-04-17T21:44:00.842Z,11.19
2023-04-17T21:46:28.538Z,11.13
2023-04-17T21:48:55.792Z,11.12
2023-04-17T21:51:22.767Z,11.16
2023-04-17T21:53:49.392Z,11.22
2023-04-17T21:56:15.943Z,11.19
2023-04-17T21:58:42.477Z,11.19
2023-04-17T22:01:09.167Z,11.19
2023-04-17T22:03:35.958Z,11.18
2023-04-17T22:06:03.016Z,11.22
2023-04-17T22:08:30.064Z,11.21
2023-04-17T22:10:56.608Z,11.15
2023-04-17T22:13:25.341Z,11.14
2023-04-17T22:15:51.938Z,11.11
2023-04-17T22:18:18.402Z,11.09
2023-04-17T22:20:45.035Z,11.07
2023-04-17T22:23:11.557Z,11.05
2023-04-17T22:25:38.297Z,11.04
2023-04-17T22:28:04.796Z,11.04
2023-04-17T22:30:31.408Z,11.00
2023-04-17T22:32:57.974Z,10.99
2023-04-17T22:35:24.514Z,10.94
2023-04-17T22:37:51.281Z,10.89
2023-04-17T22:40:17.940Z,10.86
2023-04-17T22:42:44.558Z,10.80
2023-04-17T22:45:11.160Z,10.75
2023-04-17T22:47:37.905Z,10.72
2023-04-17T22:50:05.873Z,10.73
2023-04-17T22:52:32.727Z,10.75
2023-04-17T22:54:59.288Z,10.75
2023-04-17T22:57:25.845Z,10.75
2023-04-17T22:59:52.423Z,10.73
2023-04-17T23:02:18.985Z,10.72
2023-04-17T23:04:45.510Z,10.74
2023-04-17T23:07:12.297Z,10.70
2023-04-17T23:09:38.973Z,10.70
2023-04-17T23:12:06.573Z,10.67
2023-04-17T23:14:33.130Z,10.65
2023-04-17T23:16:59.614Z,10.65
2023-04-17T23:19:26.161Z,10.56
2023-04-17T23:21:52.772Z,10.48
2023-04-17T23:24:19.334Z,10.47
2023-04-17T23:26:47.847Z,10.48
2023-04-17T23:29:14.452Z,10.45
2023-04-17T23:31:42.192Z,10.46
2023-04-17T23:34:08.754Z,10.43
2023-04-17T23:36:36.220Z,10.41
2023-04-17T23:39:05.042Z,10.41
2023-04-17T23:41:33.103Z,10.42
2023-04-17T23:43:59.677Z,10.37
2023-04-17T23:46:26.205Z,10.35
2023-04-17T23:48:52.692Z,10.35
2023-04-17T23:51:19.311Z,10.32
2023-04-17T23:53:45.882Z,10.34
2023-04-17T23:56:12.443Z,10.43
2023-04-17T23:58:39.028Z,10.46
